Carlos, Texas
Current Conditions -  °F | °C
As of 9:53 PM on Sunday 25 Jan 2015 (Local Time) from KCLL Reporting Station
Clear Clear  
Wind Chill: 53°   Ceiling: Unl
Heat Index: 53°   Visibility: 10mi
Dew Point: 27°   Wind: 8mph
Humidity: 37%   Direction: 330°NNW
Pressure: 30.17"   Gusts: NA
Location:  30.5545°N, 96.0286°W
Report Text: KCLL 260353Z AUTO 33007KT 10SM CLR 12/M03 A3017 RMK AO2 SLP216 T01171028
Loading
Personal Weather Stations






























Interactive Weather Map New forecast layout! Learn more

10-Day Weather Forecast

Advertisements
Track Severe Weather on mobile